Time;durP1;ratioP1;P1;durP2;ratioP2;P2;SDS_P1;SDS_P2;PMS_P1;PMS_P2;Temp;Humidity;BMP_temperature;BMP_pressure;BME280_temperature;BME280_humidity;BME280_pressure;Samples;Min_cycle;Max_cycle;Signal;HPM_P1;HPM_P2
2021/05/17 00:02:27;;;;;;;44.57;8.87;;;13.60;99.90;;;;;;5083741;28;20425;-75
2021/05/17 00:04:55;;;;;;;43.92;8.27;;;13.60;99.90;;;;;;5078448;28;20519;-76
2021/05/17 00:07:22;;;;;;;41.30;8.15;;;13.60;99.90;;;;;;5063561;28;20422;-76
2021/05/17 00:09:49;;;;;;;27.67;7.40;;;13.70;99.90;;;;;;5080091;28;20790;-75
2021/05/17 00:12:16;;;;;;;31.27;8.27;;;13.70;99.90;;;;;;5086408;28;20430;-74
2021/05/17 00:14:42;;;;;;;33.75;9.43;;;13.70;99.90;;;;;;5086229;28;20479;-75
2021/05/17 00:17:09;;;;;;;41.20;10.40;;;13.80;99.90;;;;;;5085782;28;20433;-75
2021/05/17 00:19:36;;;;;;;48.08;9.27;;;13.70;99.90;;;;;;5084767;28;20909;-73
2021/05/17 00:22:03;;;;;;;35.13;8.67;;;13.80;99.90;;;;;;5084490;28;23267;-74
2021/05/17 00:24:31;;;;;;;36.42;9.23;;;13.80;99.90;;;;;;5081728;28;20421;-73
2021/05/17 00:26:59;;;;;;;31.57;9.20;;;13.80;99.90;;;;;;5083423;28;20425;-73
2021/05/17 00:29:26;;;;;;;32.47;9.32;;;13.80;99.90;;;;;;5082963;28;20613;-72
2021/05/17 00:31:53;;;;;;;28.77;9.00;;;13.80;99.90;;;;;;5067807;28;20426;-73
2021/05/17 00:34:19;;;;;;;37.60;10.02;;;13.70;99.90;;;;;;5084555;28;20418;-72
2021/05/17 00:36:46;;;;;;;33.27;10.27;;;13.70;99.90;;;;;;5086610;28;20413;-73
2021/05/17 00:39:14;;;;;;;33.58;10.60;;;13.80;99.90;;;;;;5085476;28;20430;-73
2021/05/17 00:41:41;;;;;;;34.95;10.90;;;13.90;99.90;;;;;;5086865;28;20427;-73
2021/05/17 00:44:09;;;;;;;36.23;11.00;;;13.90;99.90;;;;;;5096930;28;20987;-73
2021/05/17 00:46:36;;;;;;;41.13;11.05;;;14.00;99.90;;;;;;5083643;28;20453;-73
2021/05/17 00:49:04;;;;;;;31.88;10.30;;;14.00;99.90;;;;;;5080479;28;20413;-72
2021/05/17 00:51:32;;;;;;;29.45;10.32;;;14.10;99.90;;;;;;5084263;28;20420;-73
2021/05/17 00:53:59;;;;;;;30.92;11.18;;;14.10;99.90;;;;;;5084307;28;20457;-73
2021/05/17 00:56:27;;;;;;;27.20;10.32;;;14.10;99.90;;;;;;5067855;28;20505;-73
2021/05/17 00:58:54;;;;;;;33.13;11.18;;;14.10;99.90;;;;;;5094510;28;20425;-72
2021/05/17 01:01:21;;;;;;;30.00;10.98;;;14.10;99.90;;;;;;5084851;28;20461;-72
2021/05/17 01:03:48;;;;;;;32.72;11.25;;;14.10;99.90;;;;;;5066656;28;20996;-73
2021/05/17 01:06:25;;;;;;;29.15;11.00;;;14.20;99.90;;;;;;5069032;28;20430;-72
2021/05/17 01:08:59;;;;;;;28.55;11.50;;;14.20;99.90;;;;;;5080315;28;20421;-72
2021/05/17 01:11:28;;;;;;;34.90;13.30;;;14.10;99.90;;;;;;5085499;28;20447;-74
2021/05/17 01:13:57;;;;;;;30.93;12.67;;;14.10;99.90;;;;;;5098721;28;20509;-73
2021/05/17 01:16:24;;;;;;;30.67;11.75;;;14.10;99.90;;;;;;5082389;28;20856;-72
2021/05/17 01:18:53;;;;;;;25.35;10.98;;;14.10;99.90;;;;;;5100911;28;20429;-73
2021/05/17 01:21:24;;;;;;;29.43;12.17;;;14.10;99.90;;;;;;5083732;28;20513;-73
2021/05/17 01:23:55;;;;;;;28.60;12.27;;;14.10;99.90;;;;;;5085438;28;20449;-73
2021/05/17 01:26:24;;;;;;;32.65;13.50;;;14.10;99.90;;;;;;5064004;28;20427;-72
2021/05/17 01:28:55;;;;;;;32.78;13.50;;;14.10;99.90;;;;;;5083550;28;20425;-72
2021/05/17 01:31:21;;;;;;;27.05;12.80;;;14.10;99.90;;;;;;5064960;28;20427;-72
2021/05/17 01:33:49;;;;;;;19.30;9.95;;;14.20;99.90;;;;;;5082517;28;20867;-73
2021/05/17 01:36:20;;;;;;;18.88;10.45;;;14.20;99.90;;;;;;5100367;28;20418;-73
2021/05/17 01:38:49;;;;;;;16.70;9.70;;;14.10;99.90;;;;;;5099501;28;21002;-73
2021/05/17 01:41:19;;;;;;;15.97;9.70;;;14.10;99.90;;;;;;5066787;28;20434;-73
2021/05/17 01:43:49;;;;;;;14.48;9.60;;;14.10;99.90;;;;;;5067049;28;20470;-73
2021/05/17 01:46:17;;;;;;;13.85;9.90;;;14.10;99.90;;;;;;5065689;28;20418;-73
2021/05/17 01:48:48;;;;;;;15.63;10.75;;;14.10;99.90;;;;;;5065711;28;20494;-74
2021/05/17 01:51:18;;;;;;;16.00;10.90;;;14.10;99.90;;;;;;5082794;28;20808;-73
2021/05/17 01:53:47;;;;;;;12.52;10.60;;;14.10;99.90;;;;;;5080064;28;20858;-73
2021/05/17 01:56:15;;;;;;;16.20;10.88;;;14.10;99.90;;;;;;5100866;28;20430;-74
2021/05/17 01:58:43;;;;;;;14.02;10.65;;;14.10;99.90;;;;;;5064814;28;20422;-72
2021/05/17 02:01:12;;;;;;;17.65;13.30;;;14.00;99.90;;;;;;5101652;28;20425;-72
2021/05/17 02:03:41;;;;;;;12.93;10.95;;;14.00;99.90;;;;;;5083206;28;20436;-72
2021/05/17 02:06:09;;;;;;;16.27;11.93;;;14.00;99.90;;;;;;5064499;28;20930;-73
2021/05/17 02:08:41;;;;;;;16.00;12.25;;;14.00;99.90;;;;;;5081098;28;20454;-73
2021/05/17 02:11:12;;;;;;;16.38;12.73;;;14.00;99.90;;;;;;5082039;28;20421;-73
2021/05/17 02:13:42;;;;;;;14.85;12.40;;;14.10;99.90;;;;;;5064908;28;20458;-74
2021/05/17 02:16:13;;;;;;;13.63;11.55;;;14.10;99.90;;;;;;5067382;28;20425;-72
2021/05/17 02:18:42;;;;;;;16.03;13.00;;;14.00;99.90;;;;;;5095360;28;20928;-73
2021/05/17 02:21:10;;;;;;;15.65;11.38;;;14.00;99.90;;;;;;5085215;28;20413;-73
2021/05/17 02:23:38;;;;;;;15.07;11.30;;;14.00;99.90;;;;;;5063746;28;20425;-73
2021/05/17 02:26:04;;;;;;;16.63;12.30;;;14.00;99.90;;;;;;5096908;28;21242;-73
2021/05/17 02:28:36;;;;;;;15.70;10.70;;;13.90;99.90;;;;;;5066568;28;20482;-73
2021/05/17 02:31:05;;;;;;;12.93;11.30;;;13.90;99.90;;;;;;5085174;28;20774;-73
2021/05/17 02:33:33;;;;;;;16.23;11.90;;;13.90;99.90;;;;;;5097535;28;20433;-72
2021/05/17 02:35:59;;;;;;;15.68;11.48;;;13.90;99.90;;;;;;5066041;28;20436;-74
2021/05/17 02:38:26;;;;;;;12.55;9.90;;;13.90;99.90;;;;;;5064054;28;20409;-73
2021/05/17 02:40:56;;;;;;;14.20;10.10;;;13.90;99.90;;;;;;5062683;28;20425;-72
2021/05/17 02:43:24;;;;;;;14.45;10.23;;;14.00;99.90;;;;;;5084402;28;20514;-72
2021/05/17 02:46:00;;;;;;;14.40;10.10;;;14.00;99.90;;;;;;5084327;28;20430;-72
2021/05/17 02:48:31;;;;;;;12.93;10.18;;;14.00;99.90;;;;;;5065823;28;20443;-73
2021/05/17 02:50:58;;;;;;;13.45;9.90;;;14.00;99.90;;;;;;5064286;28;21012;-73
2021/05/17 02:53:56;;;;;;;12.93;10.17;;;14.00;99.90;;;;;;5083021;28;21182;-72
2021/05/17 02:56:34;;;;;;;15.95;11.30;;;14.00;99.90;;;;;;5083710;28;20824;-73
2021/05/17 02:59:05;;;;;;;13.35;9.98;;;14.00;99.90;;;;;;5080168;28;20414;-73
2021/05/17 03:01:41;;;;;;;13.82;9.90;;;14.00;99.90;;;;;;5065603;28;20960;-72
2021/05/17 03:04:16;;;;;;;15.05;10.23;;;14.00;99.90;;;;;;5062256;28;23943;-72
2021/05/17 03:06:55;;;;;;;12.80;10.60;;;13.90;99.90;;;;;;5101228;28;20421;-73
2021/05/17 03:09:23;;;;;;;15.85;11.13;;;13.90;99.90;;;;;;5092641;28;20444;-71
2021/05/17 03:11:51;;;;;;;14.55;10.88;;;13.90;99.90;;;;;;5065809;28;20417;-72
2021/05/17 03:14:22;;;;;;;15.32;11.30;;;13.90;99.90;;;;;;5064402;28;20421;-72
2021/05/17 03:16:58;;;;;;;16.27;11.90;;;13.90;99.90;;;;;;5064413;28;20417;-72
2021/05/17 03:19:26;;;;;;;15.52;11.32;;;13.90;99.90;;;;;;5082049;28;20453;-73
2021/05/17 03:21:54;;;;;;;14.57;11.73;;;14.00;99.90;;;;;;5080170;28;20437;-72
2021/05/17 03:24:22;;;;;;;15.13;12.15;;;14.00;99.90;;;;;;5083683;28;20432;-73
2021/05/17 03:26:49;;;;;;;16.80;12.80;;;14.00;99.90;;;;;;5079544;28;20438;-73
2021/05/17 03:29:16;;;;;;;19.93;13.60;;;14.00;99.90;;;;;;5082263;28;20516;-73
2021/05/17 03:31:42;;;;;;;17.87;13.10;;;14.00;99.90;;;;;;5083915;28;20422;-74
2021/05/17 03:34:09;;;;;;;17.60;13.60;;;14.00;99.90;;;;;;5083423;28;20460;-72
2021/05/17 03:36:38;;;;;;;18.85;14.60;;;14.00;99.90;;;;;;5084055;28;20488;-73
2021/05/17 03:39:05;;;;;;;17.40;13.90;;;14.00;99.90;;;;;;5096759;28;20418;-72
2021/05/17 03:41:32;;;;;;;17.77;13.63;;;14.00;99.90;;;;;;5079817;28;20421;-72
2021/05/17 03:43:58;;;;;;;18.55;14.30;;;14.00;99.90;;;;;;5082936;28;20429;-73
2021/05/17 03:46:24;;;;;;;19.42;14.98;;;14.00;99.90;;;;;;5071057;28;20418;-72
2021/05/17 03:48:51;;;;;;;18.83;15.02;;;13.90;99.90;;;;;;5083274;28;20425;-73
2021/05/17 03:51:17;;;;;;;19.52;14.77;;;13.90;99.90;;;;;;5087614;28;20471;-73
2021/05/17 03:53:44;;;;;;;21.75;15.10;;;13.90;99.90;;;;;;5068274;28;20501;-74
2021/05/17 03:56:11;;;;;;;22.05;15.75;;;13.90;99.90;;;;;;5102394;28;20422;-72
2021/05/17 03:58:37;;;;;;;20.10;15.23;;;13.90;99.90;;;;;;5100273;28;20422;-73
2021/05/17 04:01:04;;;;;;;19.25;15.27;;;13.90;99.90;;;;;;5084209;28;20482;-73
2021/05/17 04:03:31;;;;;;;19.17;15.57;;;14.00;99.90;;;;;;5085995;28;20491;-73
2021/05/17 04:06:09;;;;;;;23.70;15.15;;;14.00;99.90;;;;;;5083988;28;20451;-73
2021/05/17 04:14:06;;;;;;;21.67;16.60;;;13.90;99.90;;;;;;5084415;28;20435;-71
2021/05/17 04:16:33;;;;;;;21.50;16.77;;;13.90;99.90;;;;;;5086691;28;20429;-70
2021/05/17 04:18:59;;;;;;;20.37;15.93;;;14.00;99.90;;;;;;5082602;28;21310;-75
2021/05/17 04:21:25;;;;;;;20.67;16.25;;;14.00;99.90;;;;;;5088978;28;20418;-71
2021/05/17 04:23:52;;;;;;;23.15;16.88;;;14.00;99.90;;;;;;5084795;28;20429;-72
2021/05/17 04:26:18;;;;;;;24.52;16.52;;;14.00;99.90;;;;;;5083261;28;20428;-72
2021/05/17 04:28:45;;;;;;;19.60;16.20;;;14.00;99.90;;;;;;5086261;28;20433;-73
2021/05/17 04:31:12;;;;;;;23.10;17.08;;;14.00;99.90;;;;;;5082075;28;20431;-71
2021/05/17 04:33:38;;;;;;;20.67;16.42;;;14.00;99.90;;;;;;5085540;28;20421;-72
2021/05/17 04:36:05;;;;;;;20.38;16.00;;;14.00;99.90;;;;;;5066924;28;20429;-72
2021/05/17 04:38:31;;;;;;;22.40;16.53;;;13.90;99.90;;;;;;5081133;28;20421;-72
2021/05/17 04:40:58;;;;;;;21.83;17.10;;;13.90;99.90;;;;;;5087772;28;20886;-72
2021/05/17 04:43:24;;;;;;;23.20;17.10;;;13.90;99.90;;;;;;5086645;28;20429;-71
2021/05/17 04:45:52;;;;;;;24.80;18.27;;;14.00;99.90;;;;;;5086463;28;20444;-73
2021/05/17 04:48:18;;;;;;;20.65;16.55;;;14.00;99.90;;;;;;5067621;28;20434;-71
2021/05/17 04:50:45;;;;;;;22.67;17.13;;;14.10;99.90;;;;;;5085711;28;20937;-70
2021/05/17 04:53:12;;;;;;;21.00;16.63;;;14.10;99.90;;;;;;5081219;28;20425;-73
2021/05/17 04:55:38;;;;;;;23.42;16.58;;;14.10;99.90;;;;;;5080909;28;20744;-72
2021/05/17 04:58:08;;;;;;;19.70;16.08;;;14.00;99.90;;;;;;5079636;28;20488;-72
2021/05/17 05:00:34;;;;;;;24.40;17.90;;;14.00;99.90;;;;;;5082535;28;20468;-72
2021/05/17 05:03:01;;;;;;;22.20;17.50;;;14.00;99.90;;;;;;5086295;28;20425;-73
2021/05/17 05:05:28;;;;;;;23.83;18.08;;;14.10;99.90;;;;;;5086332;28;20860;-71
2021/05/17 05:07:55;;;;;;;26.40;18.30;;;14.10;99.90;;;;;;5067743;28;20495;-71
2021/05/17 05:10:21;;;;;;;25.48;18.65;;;14.10;99.90;;;;;;5079918;28;20498;-72
2021/05/17 05:12:47;;;;;;;22.35;17.67;;;14.10;99.90;;;;;;5086163;28;21283;-73
2021/05/17 05:15:14;;;;;;;28.73;18.77;;;14.10;99.90;;;;;;5101318;28;20761;-71
2021/05/17 05:17:41;;;;;;;23.67;17.33;;;14.10;99.90;;;;;;5063828;28;20489;-72
2021/05/17 05:20:09;;;;;;;24.15;18.00;;;14.20;99.90;;;;;;5084721;28;20425;-71
2021/05/17 05:22:36;;;;;;;25.10;17.55;;;14.20;99.90;;;;;;5066358;28;20440;-72
2021/05/17 05:25:03;;;;;;;22.75;17.63;;;14.30;99.90;;;;;;5076250;28;20423;-71
2021/05/17 05:27:35;;;;;;;26.53;18.27;;;14.30;99.90;;;;;;5075872;28;20428;-71
2021/05/17 05:30:12;;;;;;;23.17;17.10;;;14.10;99.90;;;;;;5075640;28;20436;-72
2021/05/17 05:32:40;;;;;;;29.52;20.10;;;14.10;99.90;;;;;;5093935;28;20425;-72
2021/05/17 05:35:09;;;;;;;29.38;21.02;;;14.00;99.90;;;;;;5089356;28;20475;-72
2021/05/17 05:37:35;;;;;;;28.58;20.73;;;14.00;99.90;;;;;;5088735;28;20927;-73
2021/05/17 05:40:03;;;;;;;35.80;21.50;;;14.00;99.90;;;;;;5088073;28;20528;-72
2021/05/17 05:42:29;;;;;;;36.30;21.33;;;14.10;99.90;;;;;;5087921;28;20432;-72
2021/05/17 05:44:56;;;;;;;41.67;21.67;;;14.10;99.90;;;;;;5069322;28;20889;-74
2021/05/17 05:47:22;;;;;;;32.70;22.00;;;14.10;99.90;;;;;;5086218;28;20508;-73
2021/05/17 05:49:49;;;;;;;31.02;22.83;;;14.10;99.90;;;;;;5086761;28;20426;-73
2021/05/17 05:52:17;;;;;;;33.95;23.33;;;14.10;99.90;;;;;;5087775;28;20410;-72
2021/05/17 05:54:44;;;;;;;35.97;25.83;;;13.90;99.90;;;;;;5086546;28;20498;-73
2021/05/17 05:57:11;;;;;;;53.27;29.23;;;13.80;99.90;;;;;;5087178;28;20452;-72
2021/05/17 05:59:37;;;;;;;47.22;27.35;;;13.80;99.90;;;;;;5088046;28;20890;-73
2021/05/17 06:02:04;;;;;;;62.50;30.70;;;13.80;99.90;;;;;;5088068;28;20410;-74
2021/05/17 06:04:30;;;;;;;39.65;26.75;;;13.70;99.90;;;;;;5087857;28;20757;-72
2021/05/17 06:06:57;;;;;;;43.28;26.80;;;13.80;99.90;;;;;;5070484;28;20762;-71
2021/05/17 06:09:25;;;;;;;38.72;26.85;;;13.80;99.90;;;;;;5088015;28;20903;-73
2021/05/17 06:11:51;;;;;;;49.08;28.13;;;13.70;99.90;;;;;;5087344;28;20421;-74
2021/05/17 06:14:19;;;;;;;43.58;27.92;;;13.70;99.90;;;;;;5088267;28;20423;-74
2021/05/17 06:16:46;;;;;;;55.30;30.42;;;13.70;99.90;;;;;;5087335;28;20420;-73
2021/05/17 06:19:13;;;;;;;46.87;29.13;;;13.70;99.90;;;;;;5069573;28;20421;-73
2021/05/17 06:21:40;;;;;;;42.00;28.53;;;13.70;99.90;;;;;;5069858;28;20417;-75
2021/05/17 06:24:10;;;;;;;39.05;27.17;;;13.60;99.90;;;;;;5087716;28;20470;-74
2021/05/17 06:26:38;;;;;;;35.83;25.47;;;13.70;99.90;;;;;;5087468;28;20422;-74
2021/05/17 06:29:06;;;;;;;40.38;26.90;;;13.60;99.90;;;;;;5086689;28;20508;-76
2021/05/17 06:31:33;;;;;;;49.72;29.85;;;13.60;99.90;;;;;;5087315;28;20416;-74
2021/05/17 06:34:00;;;;;;;51.00;29.95;;;13.60;99.90;;;;;;5087123;28;20417;-72
2021/05/17 06:36:27;;;;;;;48.88;28.77;;;13.70;99.90;;;;;;5069339;28;20516;-74
2021/05/17 06:38:54;;;;;;;58.35;30.73;;;13.70;99.90;;;;;;5068917;28;20497;-73
2021/05/17 06:41:21;;;;;;;59.22;30.83;;;13.70;99.90;;;;;;5102531;28;20440;-73
2021/05/17 06:43:48;;;;;;;55.50;30.00;;;13.70;99.90;;;;;;5088129;28;20747;-76
2021/05/17 06:46:17;;;;;;;52.83;29.70;;;13.80;99.90;;;;;;5069855;28;20963;-73
2021/05/17 06:48:44;;;;;;;54.47;30.17;;;13.80;99.90;;;;;;5087515;28;20804;-78
2021/05/17 06:51:13;;;;;;;72.10;30.45;;;13.80;99.90;;;;;;5086101;28;20747;-76
2021/05/17 06:53:41;;;;;;;58.15;29.75;;;13.80;99.90;;;;;;5102363;28;20511;-76
2021/05/17 06:56:12;;;;;;;49.90;27.67;;;13.90;99.90;;;;;;5086413;28;20789;-77
2021/05/17 06:58:53;;;;;;;43.83;27.10;;;13.90;99.90;;;;;;5086638;28;20417;-77
2021/05/17 07:01:21;;;;;;;55.20;26.10;;;13.90;99.90;;;;;;5067837;28;20418;-75
2021/05/17 07:03:48;;;;;;;57.10;26.65;;;13.90;99.90;;;;;;5087911;28;20424;-73
2021/05/17 07:06:19;;;;;;;63.80;27.45;;;13.90;99.90;;;;;;5086369;28;20421;-74
2021/05/17 07:11:38;;;;;;;56.92;29.80;;;13.90;99.90;;;;;;5087972;28;20409;-76
2021/05/17 07:14:04;;;;;;;104.75;32.50;;;13.90;99.90;;;;;;5086716;28;20428;-77
2021/05/17 07:16:33;;;;;;;68.47;29.33;;;13.80;99.90;;;;;;5068739;28;20410;-74
2021/05/17 07:19:00;;;;;;;43.35;23.42;;;13.80;99.90;;;;;;5086570;28;20416;-73
2021/05/17 07:24:11;;;;;;;23.02;14.13;;;13.80;99.90;;;;;;5086916;28;20758;-76
2021/05/17 07:26:37;;;;;;;30.80;14.60;;;13.80;99.90;;;;;;5088183;28;20425;-75
2021/05/17 07:29:07;;;;;;;17.50;9.63;;;13.70;99.90;;;;;;5089953;28;20569;-75
2021/05/17 07:31:35;;;;;;;24.90;14.17;;;13.70;99.90;;;;;;5073249;28;20479;-75
2021/05/17 07:34:01;;;;;;;13.15;9.43;;;13.70;99.90;;;;;;5088321;28;20431;-74
2021/05/17 07:36:28;;;;;;;12.45;8.18;;;13.70;99.90;;;;;;5091541;28;20417;-75
2021/05/17 07:38:54;;;;;;;13.73;8.77;;;13.60;99.90;;;;;;5090023;28;20417;-75
2021/05/17 07:41:21;;;;;;;16.63;9.50;;;13.60;99.90;;;;;;5070927;28;20427;-75
2021/05/17 07:43:47;;;;;;;13.13;9.13;;;13.60;99.90;;;;;;5090954;28;20504;-74
2021/05/17 07:46:14;;;;;;;12.18;8.23;;;13.70;99.90;;;;;;5090797;28;20459;-75
2021/05/17 07:51:26;;;;;;;14.40;9.18;;;13.70;99.90;;;;;;5091170;28;20982;-74
2021/05/17 07:53:53;;;;;;;39.57;10.90;;;13.80;99.90;;;;;;5089438;28;20446;-78
2021/05/17 07:56:19;;;;;;;39.25;12.73;;;13.90;99.90;;;;;;5105632;28;20429;-76
2021/05/17 07:58:46;;;;;;;20.35;9.70;;;13.90;99.90;;;;;;5090843;28;21835;-73
2021/05/17 08:01:12;;;;;;;10.98;8.05;;;14.00;99.90;;;;;;5090930;28;20409;-73
2021/05/17 08:03:39;;;;;;;12.32;8.43;;;14.00;99.90;;;;;;5091248;28;20933;-74
2021/05/17 08:06:07;;;;;;;10.85;8.43;;;14.10;99.90;;;;;;5091459;28;20471;-74
2021/05/17 08:08:34;;;;;;;12.50;9.75;;;14.10;99.90;;;;;;5071838;28;20792;-75
2021/05/17 08:11:01;;;;;;;12.07;9.60;;;14.10;99.90;;;;;;5086303;28;20436;-74
2021/05/17 08:13:27;;;;;;;15.75;10.63;;;14.10;99.90;;;;;;5080269;28;22130;-75
2021/05/17 08:15:54;;;;;;;17.60;10.38;;;14.10;99.90;;;;;;5086177;28;20449;-74
2021/05/17 08:18:20;;;;;;;16.55;11.15;;;14.10;99.90;;;;;;5085917;28;20454;-74
2021/05/17 08:20:47;;;;;;;18.63;11.50;;;14.10;99.90;;;;;;5066109;28;20509;-76
2021/05/17 08:23:16;;;;;;;21.42;12.27;;;14.10;99.90;;;;;;5084202;28;20431;-75
2021/05/17 08:25:44;;;;;;;18.08;11.60;;;14.10;99.90;;;;;;5085453;28;20430;-73
2021/05/17 08:28:10;;;;;;;9.40;7.00;;;14.10;99.90;;;;;;5086679;28;20481;-76
2021/05/17 08:30:41;;;;;;;14.32;5.78;;;14.10;99.90;;;;;;5085826;28;20951;-74
2021/05/17 08:33:08;;;;;;;7.53;6.00;;;14.00;99.90;;;;;;5085350;28;20784;-75
2021/05/17 08:35:35;;;;;;;7.90;6.05;;;14.00;99.90;;;;;;5087247;28;20426;-71
2021/05/17 08:38:02;;;;;;;13.90;7.20;;;14.00;99.90;;;;;;5084885;28;20742;-72
2021/05/17 08:40:33;;;;;;;12.20;7.75;;;14.00;99.90;;;;;;5083899;28;20532;-73
2021/05/17 08:43:00;;;;;;;12.52;7.13;;;14.00;99.90;;;;;;5083481;28;20429;-74
2021/05/17 08:45:26;;;;;;;14.85;8.75;;;14.00;99.90;;;;;;5081568;28;20433;-73
2021/05/17 08:47:54;;;;;;;14.38;7.40;;;14.00;99.90;;;;;;5083971;28;20431;-74
2021/05/17 08:50:21;;;;;;;15.27;7.22;;;14.00;99.90;;;;;;5082834;28;20421;-72
2021/05/17 08:52:48;;;;;;;30.52;8.20;;;14.00;99.90;;;;;;5081047;28;20427;-72
2021/05/17 08:55:15;;;;;;;27.10;7.55;;;14.00;99.90;;;;;;5082440;28;20484;-73
2021/05/17 08:57:44;;;;;;;15.10;7.90;;;14.10;99.90;;;;;;5094941;28;20456;-74
2021/05/17 09:00:12;;;;;;;7.75;6.03;;;14.10;99.90;;;;;;5084272;28;20448;-75
2021/05/17 09:02:38;;;;;;;34.58;8.00;;;14.10;99.90;;;;;;5069862;28;20422;-75
2021/05/17 09:05:14;;;;;;;7.03;4.47;;;14.20;99.90;;;;;;5081395;28;21055;-75
2021/05/17 09:07:43;;;;;;;13.02;4.25;;;14.20;99.90;;;;;;5067737;28;20554;-74
2021/05/17 09:10:14;;;;;;;8.70;5.00;;;14.20;99.90;;;;;;5066788;28;20423;-72
2021/05/17 09:13:05;;;;;;;10.40;6.90;;;14.30;99.90;;;;;;5095833;28;20426;-73
2021/05/17 09:15:37;;;;;;;4.82;3.00;;;14.30;99.90;;;;;;5087481;28;20221;-73
2021/05/17 09:18:10;;;;;;;4.30;2.50;;;14.00;99.90;;;;;;5084424;28;20466;-73
2021/05/17 09:20:37;;;;;;;3.37;2.00;;;14.20;99.90;;;;;;5083496;28;20424;-73
2021/05/17 09:23:12;;;;;;;3.20;2.00;;;14.30;99.90;;;;;;5082845;28;20432;-71
2021/05/17 09:25:54;;;;;;;2.28;1.13;;;14.40;99.90;;;;;;5085864;28;20852;-73
2021/05/17 09:28:25;;;;;;;2.67;1.20;;;14.50;99.90;;;;;;5082269;28;20425;-71
2021/05/17 09:31:02;;;;;;;2.50;1.10;;;14.50;99.90;;;;;;5084666;28;20780;-73
2021/05/17 09:33:29;;;;;;;1.80;1.23;;;14.60;99.90;;;;;;5068387;28;20427;-73
2021/05/17 09:35:55;;;;;;;0.98;0.80;;;14.60;99.90;;;;;;5085141;28;20422;-71
2021/05/17 09:38:24;;;;;;;2.15;1.00;;;14.60;99.90;;;;;;5067267;28;20419;-72
2021/05/17 09:41:08;;;;;;;3.10;1.42;;;14.60;99.90;;;;;;5084352;28;20426;-72
2021/05/17 09:43:35;;;;;;;3.90;1.45;;;14.60;99.90;;;;;;5083824;28;20429;-72
2021/05/17 09:46:02;;;;;;;3.20;1.60;;;14.70;99.90;;;;;;5085559;28;20523;-71
2021/05/17 09:48:30;;;;;;;2.70;1.37;;;14.70;99.90;;;;;;5086056;28;20498;-72
2021/05/17 09:51:03;;;;;;;2.30;1.40;;;14.70;99.90;;;;;;5067089;28;20548;-71
2021/05/17 09:53:31;;;;;;;4.07;1.40;;;14.70;99.90;;;;;;5083027;28;20891;-72
2021/05/17 09:55:58;;;;;;;3.40;1.73;;;14.80;99.90;;;;;;5082407;28;20431;-70
2021/05/17 09:58:32;;;;;;;3.83;2.00;;;14.90;99.90;;;;;;5086031;28;20504;-71
2021/05/17 10:01:25;;;;;;;3.95;2.60;;;14.90;99.90;;;;;;5087610;28;20421;-71
2021/05/17 10:03:54;;;;;;;2.20;1.90;;;15.10;99.90;;;;;;5089192;28;20417;-73
2021/05/17 10:06:23;;;;;;;2.70;1.60;;;15.20;99.90;;;;;;5088746;28;20916;-71
2021/05/17 10:08:50;;;;;;;3.63;2.38;;;15.20;99.90;;;;;;5088021;28;20429;-72
2021/05/17 10:11:17;;;;;;;3.72;2.80;;;15.30;99.90;;;;;;5088693;28;20496;-72
2021/05/17 10:13:44;;;;;;;6.38;4.28;;;15.30;99.90;;;;;;5067775;28;20418;-73
2021/05/17 10:16:13;;;;;;;5.70;4.32;;;15.30;99.90;;;;;;5082754;28;20470;-74
2021/05/17 10:18:41;;;;;;;6.55;4.78;;;15.30;99.90;;;;;;5088533;28;20462;-72
2021/05/17 10:21:09;;;;;;;5.75;5.03;;;15.40;99.90;;;;;;5088198;28;20515;-73
2021/05/17 10:23:37;;;;;;;7.32;5.60;;;15.50;99.90;;;;;;5086387;28;20421;-71
2021/05/17 10:26:10;;;;;;;9.65;6.45;;;15.60;99.90;;;;;;5069259;28;20433;-73
2021/05/17 10:28:38;;;;;;;7.47;5.45;;;15.70;99.90;;;;;;5101710;28;20427;-71
2021/05/17 10:31:14;;;;;;;8.70;5.90;;;15.80;99.90;;;;;;5086996;28;20467;-72
2021/05/17 10:33:42;;;;;;;10.18;6.97;;;15.90;99.90;;;;;;5088127;28;20917;-73
2021/05/17 10:36:09;;;;;;;10.93;6.90;;;16.00;99.90;;;;;;5088035;28;20414;-72
2021/05/17 10:38:43;;;;;;;11.70;7.68;;;16.10;99.90;;;;;;5088651;28;20405;-73
2021/05/17 10:44:11;;;;;;;11.27;8.80;;;16.00;99.90;;;;;;5065577;28;20478;-72
2021/05/17 10:46:41;;;;;;;11.63;8.57;;;16.00;99.90;;;;;;5087138;28;20422;-72
2021/05/17 10:49:35;;;;;;;14.73;9.03;;;16.10;99.90;;;;;;5069875;28;20418;-71
2021/05/17 10:52:23;;;;;;;14.77;10.50;;;16.20;99.90;;;;;;5087097;28;20430;-73
2021/05/17 10:55:06;;;;;;;13.98;10.50;;;16.20;99.90;;;;;;5084512;28;20479;-72
2021/05/17 10:57:38;;;;;;;15.05;10.05;;;16.30;99.90;;;;;;5087054;28;20420;-73
2021/05/17 11:00:23;;;;;;;12.90;9.70;;;16.30;99.90;;;;;;5069751;28;20517;-73
2021/05/17 11:03:10;;;;;;;10.70;8.53;;;16.40;99.90;;;;;;5087882;28;20456;-72
2021/05/17 11:05:37;;;;;;;9.05;6.75;;;16.50;99.90;;;;;;5087546;28;20414;-72
2021/05/17 11:08:07;;;;;;;9.05;7.15;;;16.50;99.90;;;;;;5086591;28;20417;-73
2021/05/17 11:10:36;;;;;;;10.93;8.10;;;16.60;99.80;;;;;;5087338;28;20409;-71
2021/05/17 11:13:11;;;;;;;12.53;7.97;;;16.60;99.90;;;;;;5087078;28;20433;-74
2021/05/17 11:16:00;;;;;;;11.93;9.10;;;16.70;99.60;;;;;;5101097;28;20496;-72
2021/05/17 11:18:46;;;;;;;9.85;7.93;;;16.90;99.90;;;;;;5077447;28;20431;-75
2021/05/17 11:21:25;;;;;;;7.85;6.28;;;16.90;98.90;;;;;;5082933;28;20439;-73
2021/05/17 11:24:03;;;;;;;7.95;5.85;;;17.00;98.10;;;;;;5080537;28;20434;-74
2021/05/17 11:26:32;;;;;;;8.60;5.72;;;16.90;97.70;;;;;;5083167;28;20438;-73
2021/05/17 11:29:07;;;;;;;7.88;5.50;;;16.90;98.00;;;;;;5057207;28;20475;-72
2021/05/17 11:31:42;;;;;;;6.15;3.83;;;16.90;97.90;;;;;;5082877;28;20418;-72
2021/05/17 11:34:14;;;;;;;6.78;4.03;;;16.90;96.50;;;;;;5079400;28;20487;-72
2021/05/17 11:36:43;;;;;;;4.70;3.15;;;17.00;97.70;;;;;;5082805;28;20904;-72
2021/05/17 11:39:14;;;;;;;7.97;3.63;;;17.00;96.60;;;;;;5061976;28;20984;-73
2021/05/17 11:41:44;;;;;;;5.28;3.30;;;17.20;97.30;;;;;;5078913;28;20483;-73
2021/05/17 11:44:12;;;;;;;4.43;2.95;;;17.30;95.70;;;;;;5080967;28;20418;-73
2021/05/17 11:46:40;;;;;;;3.17;2.53;;;17.30;94.70;;;;;;5064578;28;20487;-73
2021/05/17 11:49:12;;;;;;;4.47;3.30;;;17.30;94.90;;;;;;5066983;28;20432;-71
2021/05/17 11:51:39;;;;;;;5.23;3.10;;;17.30;95.60;;;;;;5067842;28;20423;-72
2021/05/17 11:54:08;;;;;;;4.50;3.10;;;17.50;94.80;;;;;;5085884;28;20543;-71
2021/05/17 11:56:36;;;;;;;3.85;2.67;;;17.50;95.60;;;;;;5085565;28;20497;-71
2021/05/17 11:59:08;;;;;;;5.05;3.10;;;17.70;94.00;;;;;;5087551;28;20509;-71
2021/05/17 12:01:34;;;;;;;4.23;3.70;;;17.70;93.40;;;;;;5099832;28;20432;-71
2021/05/17 12:04:12;;;;;;;8.45;3.40;;;17.70;93.80;;;;;;5067844;28;20421;-72
2021/05/17 12:06:40;;;;;;;5.63;3.28;;;17.80;94.60;;;;;;5089011;28;20481;-72
2021/05/17 12:09:06;;;;;;;6.32;3.75;;;17.90;94.30;;;;;;5090584;28;20414;-71
2021/05/17 12:11:33;;;;;;;6.22;4.00;;;18.10;94.60;;;;;;5068790;28;20414;-72
2021/05/17 12:14:07;;;;;;;6.10;3.80;;;18.10;93.20;;;;;;5090870;28;20413;-72
2021/05/17 12:16:33;;;;;;;5.50;4.40;;;18.20;93.00;;;;;;5072745;28;20831;-70
2021/05/17 12:19:02;;;;;;;5.95;4.63;;;18.20;94.40;;;;;;5090948;28;20406;-72
2021/05/17 12:21:33;;;;;;;5.75;4.32;;;18.30;93.90;;;;;;5090084;28;20769;-72
2021/05/17 12:24:00;;;;;;;5.85;4.10;;;18.40;93.40;;;;;;5091167;28;20508;-71
2021/05/17 12:26:47;;;;;;;7.15;5.07;;;18.40;92.10;;;;;;5106999;28;21045;-72
2021/05/17 12:29:13;;;;;;;6.78;3.60;;;18.40;91.10;;;;;;5088453;28;20903;-71
2021/05/17 12:31:39;;;;;;;4.28;2.92;;;18.30;90.70;;;;;;5089072;28;20426;-72
2021/05/17 12:34:08;;;;;;;5.45;3.08;;;18.30;91.70;;;;;;5090475;28;20912;-70
2021/05/17 12:36:36;;;;;;;6.53;3.10;;;18.20;91.40;;;;;;5069696;28;20438;-71
2021/05/17 12:39:04;;;;;;;5.45;3.00;;;18.20;92.00;;;;;;5090198;28;20929;-72
2021/05/17 12:41:38;;;;;;;6.28;3.00;;;18.30;91.70;;;;;;5089569;28;20987;-73
2021/05/17 12:44:33;;;;;;;5.60;2.38;;;18.30;91.70;;;;;;5089959;28;20962;-73
2021/05/17 12:47:11;;;;;;;5.45;2.47;;;18.30;92.00;;;;;;5088603;28;20955;-72
2021/05/17 12:49:51;;;;;;;7.07;2.00;;;18.40;92.70;;;;;;5084281;28;20984;-72
2021/05/17 12:52:26;;;;;;;4.45;1.80;;;18.40;91.80;;;;;;5088673;28;20418;-73
2021/05/17 12:55:17;;;;;;;6.82;1.65;;;18.60;92.70;;;;;;5087169;28;20425;-73
2021/05/17 12:57:53;;;;;;;4.30;1.58;;;18.60;90.50;;;;;;5089074;28;21393;-72
2021/05/17 13:00:41;;;;;;;4.45;1.40;;;18.80;92.40;;;;;;5088956;28;20421;-70
2021/05/17 13:03:10;;;;;;;3.50;1.10;;;19.10;92.40;;;;;;5088344;28;20298;-72